createdAt,value
2018-07-28T00:00:54.774Z,23.80
2018-07-28T00:03:22.978Z,23.90
2018-07-28T00:05:51.361Z,23.80
2018-07-28T00:08:19.643Z,23.80
2018-07-28T00:10:48.402Z,23.70
2018-07-28T00:13:16.710Z,23.70
2018-07-28T00:15:45.005Z,23.70
2018-07-28T00:18:13.265Z,23.60
2018-07-28T00:20:41.540Z,23.60
2018-07-28T00:23:09.960Z,23.50
2018-07-28T00:25:42.485Z,23.50
2018-07-28T00:28:11.139Z,23.60
2018-07-28T00:30:39.445Z,23.50
2018-07-28T00:33:07.881Z,23.20
2018-07-28T00:35:36.201Z,23.10
2018-07-28T00:38:04.503Z,23.10
2018-07-28T00:40:32.780Z,23.10
2018-07-28T00:43:01.033Z,23.10
2018-07-28T00:45:29.382Z,23.10
2018-07-28T00:47:57.652Z,23.10
2018-07-28T00:50:25.877Z,23.10
2018-07-28T00:52:54.198Z,22.90
2018-07-28T00:55:22.517Z,22.80
2018-07-28T00:57:50.796Z,22.80
2018-07-28T01:00:19.053Z,22.80
2018-07-28T01:02:47.685Z,22.90
2018-07-28T01:05:15.973Z,23.00
2018-07-28T01:07:44.209Z,22.90
2018-07-28T01:10:12.547Z,22.90
2018-07-28T01:12:40.841Z,23.00
2018-07-28T01:15:10.799Z,23.00
2018-07-28T01:17:39.157Z,23.00
2018-07-28T01:20:08.025Z,23.00
2018-07-28T01:22:36.468Z,23.10
2018-07-28T01:25:05.488Z,23.30
2018-07-28T01:27:33.765Z,23.30
2018-07-28T01:30:02.063Z,23.00
2018-07-28T01:32:30.328Z,23.00
2018-07-28T01:34:58.582Z,23.10
2018-07-28T01:37:26.865Z,23.20
2018-07-28T01:39:55.144Z,23.20
2018-07-28T01:42:23.485Z,23.30
2018-07-28T01:44:51.725Z,23.40
2018-07-28T01:47:19.998Z,23.30
2018-07-28T01:49:48.254Z,23.30
2018-07-28T01:52:16.577Z,23.40
2018-07-28T01:54:45.118Z,23.40
2018-07-28T01:57:13.587Z,23.30
2018-07-28T01:59:42.768Z,23.30
2018-07-28T02:02:11.031Z,23.20
2018-07-28T02:04:39.283Z,23.20
2018-07-28T02:07:07.572Z,23.20
2018-07-28T02:09:35.891Z,23.20
2018-07-28T02:12:04.256Z,23.30
2018-07-28T02:14:32.521Z,23.30
2018-07-28T02:17:00.733Z,23.30
2018-07-28T02:19:28.969Z,23.20
2018-07-28T02:21:57.273Z,23.20
2018-07-28T02:24:25.497Z,23.30
2018-07-28T02:26:53.793Z,23.30
2018-07-28T02:29:22.123Z,23.30
2018-07-28T02:31:50.426Z,23.30
2018-07-28T02:34:18.712Z,23.30
2018-07-28T02:36:47.072Z,23.30
2018-07-28T02:39:15.354Z,23.50
2018-07-28T02:41:43.695Z,23.60
2018-07-28T02:44:11.929Z,23.60
2018-07-28T02:46:40.222Z,23.70
2018-07-28T02:49:08.526Z,23.60
2018-07-28T02:51:36.869Z,23.70
2018-07-28T02:54:05.165Z,23.80
2018-07-28T02:56:33.461Z,23.80
2018-07-28T02:59:01.712Z,23.80
2018-07-28T03:01:29.971Z,23.80
2018-07-28T03:03:58.617Z,23.80
2018-07-28T03:06:26.954Z,23.70
2018-07-28T03:08:55.836Z,23.70
2018-07-28T03:11:24.109Z,23.70
2018-07-28T03:13:52.398Z,23.70
2018-07-28T03:16:20.661Z,23.70
2018-07-28T03:18:48.942Z,23.70
2018-07-28T03:21:17.256Z,23.60
2018-07-28T03:23:45.589Z,23.60
2018-07-28T03:26:14.348Z,23.60
2018-07-28T03:28:42.660Z,23.70
2018-07-28T03:31:11.056Z,23.70
2018-07-28T03:33:39.365Z,23.70
2018-07-28T03:36:07.686Z,23.70
2018-07-28T03:38:35.992Z,23.70
2018-07-28T03:41:04.224Z,23.60
2018-07-28T03:43:32.560Z,23.70
2018-07-28T03:46:00.841Z,23.50
2018-07-28T03:48:29.076Z,23.40
2018-07-28T03:50:57.317Z,23.30
2018-07-28T03:53:25.801Z,23.20
2018-07-28T03:55:54.093Z,23.00
2018-07-28T03:58:22.422Z,23.00
2018-07-28T04:00:50.707Z,23.00
2018-07-28T04:03:18.957Z,23.00
2018-07-28T04:05:47.661Z,23.00
2018-07-28T04:08:15.865Z,23.10
2018-07-28T04:10:44.169Z,23.00
2018-07-28T04:13:12.433Z,23.00
2018-07-28T04:15:40.720Z,22.90
2018-07-28T04:18:09.036Z,22.90
2018-07-28T04:23:05.592Z,23.10
2018-07-28T04:25:33.901Z,23.10
2018-07-28T04:28:02.228Z,22.90
2018-07-28T04:30:30.471Z,22.90
2018-07-28T04:32:58.699Z,22.90
2018-07-28T04:37:55.085Z,23.10
2018-07-28T04:40:23.350Z,23.10
2018-07-28T04:42:51.641Z,23.20
2018-07-28T04:45:19.914Z,23.20
2018-07-28T04:47:48.300Z,23.10
2018-07-28T04:50:16.594Z,23.10
2018-07-28T04:52:44.935Z,22.90
2018-07-28T04:55:13.209Z,22.80
2018-07-28T04:57:41.461Z,22.70
2018-07-28T05:00:09.696Z,22.70
2018-07-28T05:02:37.969Z,22.80
2018-07-28T05:05:06.330Z,22.90
2018-07-28T05:07:34.705Z,22.80
2018-07-28T05:10:02.905Z,22.90
2018-07-28T05:12:31.162Z,22.90
2018-07-28T05:14:59.493Z,23.10
2018-07-28T05:17:27.883Z,23.20
2018-07-28T05:19:56.235Z,23.30
2018-07-28T05:22:24.485Z,23.40
2018-07-28T05:24:52.788Z,23.50
2018-07-28T05:29:49.306Z,23.50
2018-07-28T05:32:17.722Z,23.50
2018-07-28T05:34:46.067Z,23.50
2018-07-28T05:37:14.372Z,23.50
2018-07-28T05:39:42.687Z,23.50
2018-07-28T05:42:10.993Z,23.50
2018-07-28T05:44:39.372Z,23.60
2018-07-28T05:47:07.621Z,23.50
2018-07-28T05:49:35.894Z,23.40
2018-07-28T05:52:04.181Z,23.40
2018-07-28T05:54:32.812Z,23.30
2018-07-28T05:57:01.098Z,23.30
2018-07-28T05:59:29.333Z,23.20
2018-07-28T06:01:57.702Z,23.20
2018-07-28T06:04:26.020Z,23.20
2018-07-28T06:06:54.296Z,23.30
2018-07-28T06:09:22.934Z,23.40
2018-07-28T06:11:51.313Z,23.40
2018-07-28T06:14:19.641Z,23.40
2018-07-28T06:16:48.085Z,23.40
2018-07-28T06:19:16.401Z,23.40
2018-07-28T06:21:44.647Z,23.30
2018-07-28T06:24:12.983Z,23.30
2018-07-28T06:26:41.530Z,23.20
2018-07-28T06:29:10.322Z,23.10
2018-07-28T06:31:38.676Z,23.20
2018-07-28T06:36:35.193Z,23.30
2018-07-28T06:39:03.490Z,23.30
2018-07-28T06:41:36.833Z,23.30
2018-07-28T06:44:05.167Z,23.20
2018-07-28T06:46:33.709Z,23.10
2018-07-28T06:49:02.115Z,23.10
2018-07-28T06:51:30.975Z,23.10
2018-07-28T06:53:59.297Z,23.00
2018-07-28T06:56:27.653Z,23.00
2018-07-28T06:58:56.025Z,23.10
2018-07-28T07:01:24.333Z,23.10
2018-07-28T07:03:52.689Z,23.00
2018-07-28T07:06:21.201Z,23.00
2018-07-28T07:08:49.696Z,23.00
2018-07-28T07:11:18.048Z,22.80
2018-07-28T07:13:46.400Z,22.90
2018-07-28T07:16:14.682Z,22.90
2018-07-28T07:18:43.083Z,22.90
2018-07-28T07:21:11.421Z,23.00
2018-07-28T07:23:39.824Z,23.10
2018-07-28T07:26:08.458Z,23.00
2018-07-28T07:28:36.765Z,23.10
2018-07-28T07:31:05.097Z,23.10
2018-07-28T07:33:33.437Z,23.10
2018-07-28T07:36:01.696Z,23.10
2018-07-28T07:38:29.951Z,22.90
2018-07-28T07:40:58.261Z,22.80
2018-07-28T07:43:26.552Z,22.80
2018-07-28T07:45:54.865Z,22.80
2018-07-28T07:48:23.125Z,22.80
2018-07-28T07:50:51.411Z,22.90
2018-07-28T07:53:19.985Z,22.90
2018-07-28T07:55:48.293Z,23.00
2018-07-28T07:58:16.572Z,23.10
2018-07-28T08:00:44.916Z,23.00
2018-07-28T08:03:13.413Z,22.90
2018-07-28T08:05:41.681Z,22.90
2018-07-28T08:08:10.045Z,22.90
2018-07-28T08:10:38.312Z,23.00
2018-07-28T08:13:06.659Z,23.00
2018-07-28T08:15:35.130Z,23.00
2018-07-28T08:20:54.685Z,23.00
2018-07-28T08:23:22.933Z,23.20
2018-07-28T08:25:51.250Z,23.10
2018-07-28T08:28:19.498Z,23.10
2018-07-28T08:30:47.771Z,23.30
2018-07-28T08:33:16.237Z,23.50
2018-07-28T08:35:44.549Z,23.20
2018-07-28T08:38:12.782Z,23.20
2018-07-28T08:40:41.090Z,23.50
2018-07-28T08:43:09.349Z,24.00
2018-07-28T08:45:37.624Z,24.30
2018-07-28T08:48:06.147Z,24.40
2018-07-28T08:50:34.467Z,24.70
2018-07-28T08:53:02.702Z,24.90
2018-07-28T08:55:31.039Z,25.20
2018-07-28T08:57:59.362Z,25.40
2018-07-28T09:00:27.657Z,25.50
2018-07-28T09:03:05.101Z,25.50
2018-07-28T09:05:33.448Z,25.70
2018-07-28T09:08:01.716Z,25.60
2018-07-28T09:10:29.964Z,25.30
2018-07-28T09:12:58.270Z,25.30
2018-07-28T09:15:27.167Z,25.30
2018-07-28T09:17:55.556Z,25.30
2018-07-28T09:20:23.794Z,25.70
2018-07-28T09:22:52.074Z,25.90
2018-07-28T09:25:20.337Z,26.00
2018-07-28T09:27:49.109Z,26.00
2018-07-28T09:30:17.372Z,26.20
2018-07-28T09:32:45.684Z,26.60
2018-07-28T09:35:13.905Z,26.50
2018-07-28T09:37:42.194Z,26.30
2018-07-28T09:40:10.454Z,26.20
2018-07-28T09:42:38.825Z,26.10
2018-07-28T09:45:07.248Z,26.20
2018-07-28T09:47:35.660Z,26.40
2018-07-28T09:50:04.466Z,26.50
2018-07-28T09:52:32.753Z,26.50
2018-07-28T09:55:01.447Z,27.60
2018-07-28T09:57:29.685Z,27.60
2018-07-28T09:59:57.959Z,27.70
2018-07-28T10:02:26.387Z,27.40
2018-07-28T10:04:54.681Z,27.20
2018-07-28T10:07:22.998Z,26.70
2018-07-28T10:09:51.274Z,26.20
2018-07-28T10:12:19.621Z,25.90
2018-07-28T10:14:48.002Z,26.00
2018-07-28T10:17:16.279Z,26.00
2018-07-28T10:19:44.730Z,26.10
2018-07-28T10:22:13.038Z,26.20
2018-07-28T10:24:41.424Z,26.30
2018-07-28T10:27:09.655Z,26.40
2018-07-28T10:29:38.229Z,26.50
2018-07-28T10:32:06.727Z,27.00
2018-07-28T10:34:35.066Z,27.60
2018-07-28T10:37:03.497Z,28.20
2018-07-28T10:39:31.902Z,28.10
2018-07-28T10:42:00.186Z,27.50
2018-07-28T10:44:28.478Z,26.90
2018-07-28T10:46:56.819Z,26.80
2018-07-28T10:49:25.061Z,26.60
2018-07-28T10:51:53.411Z,26.50
2018-07-28T10:54:21.675Z,26.80
2018-07-28T10:56:49.988Z,27.40
2018-07-28T10:59:18.329Z,27.70
2018-07-28T11:01:46.752Z,27.40
2018-07-28T11:04:15.026Z,27.10
2018-07-28T11:06:43.342Z,26.40
2018-07-28T11:09:11.792Z,25.50
2018-07-28T11:11:39.993Z,25.00
2018-07-28T11:14:08.288Z,24.60
2018-07-28T11:16:36.566Z,24.50
2018-07-28T11:19:04.925Z,24.50
2018-07-28T11:21:33.091Z,24.60
2018-07-28T11:24:02.416Z,25.30
2018-07-28T11:26:30.702Z,26.10
2018-07-28T11:28:59.063Z,26.90
2018-07-28T11:31:38.704Z,27.40
2018-07-28T11:34:18.212Z,27.50
2018-07-28T11:36:57.756Z,27.60
2018-07-28T11:39:37.335Z,27.20
2018-07-28T11:42:17.005Z,27.20
2018-07-28T11:44:57.145Z,27.00
2018-07-28T11:47:25.522Z,26.90
2018-07-28T11:49:53.854Z,27.20
2018-07-28T11:52:22.149Z,27.10
2018-07-28T11:54:50.690Z,26.90
2018-07-28T11:57:18.913Z,25.90
2018-07-28T11:59:47.192Z,25.30
2018-07-28T12:02:15.455Z,24.90
2018-07-28T12:04:43.769Z,25.20
2018-07-28T12:07:12.027Z,25.00
2018-07-28T12:09:40.349Z,25.20
2018-07-28T12:12:08.681Z,25.50
2018-07-28T12:14:37.009Z,25.40
2018-07-28T12:17:05.875Z,25.40
2018-07-28T12:19:34.229Z,25.30
2018-07-28T12:22:02.633Z,25.30
2018-07-28T12:24:30.929Z,25.20
2018-07-28T12:26:59.689Z,25.30
2018-07-28T12:29:27.907Z,25.70
2018-07-28T12:31:56.146Z,25.80
2018-07-28T12:34:24.415Z,25.70
2018-07-28T12:36:52.698Z,25.80
2018-07-28T12:39:21.042Z,25.80
2018-07-28T12:41:49.376Z,25.70
2018-07-28T12:44:17.667Z,25.90
2018-07-28T12:46:45.974Z,25.80
2018-07-28T12:49:14.265Z,25.80
2018-07-28T12:51:42.615Z,26.00
2018-07-28T12:54:10.909Z,26.10
2018-07-28T12:59:07.142Z,26.30
2018-07-28T13:01:35.520Z,25.80
2018-07-28T13:04:03.942Z,25.40
2018-07-28T13:06:32.170Z,25.10
2018-07-28T13:09:00.449Z,25.20
2018-07-28T13:11:28.724Z,25.70
2018-07-28T13:13:57.078Z,25.70
2018-07-28T13:16:25.369Z,25.50
2018-07-28T13:18:53.653Z,25.50
2018-07-28T13:21:21.994Z,25.60
2018-07-28T13:23:50.268Z,25.50
2018-07-28T13:26:18.578Z,25.50
2018-07-28T13:28:46.863Z,25.50
2018-07-28T13:31:15.130Z,26.00
2018-07-28T13:33:43.394Z,25.90
2018-07-28T13:36:11.735Z,25.70
2018-07-28T13:38:40.009Z,25.70
2018-07-28T13:41:08.313Z,25.70
2018-07-28T13:43:36.718Z,25.50
2018-07-28T13:46:05.055Z,25.50
2018-07-28T13:48:33.650Z,25.40
2018-07-28T13:51:02.136Z,25.50
2018-07-28T13:53:30.602Z,25.50
2018-07-28T13:55:58.813Z,25.50
2018-07-28T13:58:27.189Z,25.40
2018-07-28T14:00:55.502Z,25.30
2018-07-28T14:03:23.778Z,25.30
2018-07-28T14:05:52.161Z,25.30
2018-07-28T14:08:20.458Z,25.10
2018-07-28T14:10:48.762Z,25.00
2018-07-28T14:13:17.185Z,25.10
2018-07-28T14:15:45.442Z,25.10
2018-07-28T14:18:13.817Z,25.10
2018-07-28T14:20:42.054Z,25.10
2018-07-28T14:23:10.408Z,25.00
2018-07-28T14:25:38.695Z,24.80
2018-07-28T14:28:07.255Z,24.70
2018-07-28T14:30:35.561Z,24.80
2018-07-28T14:33:04.037Z,24.90
2018-07-28T14:35:32.323Z,24.80
2018-07-28T14:38:00.734Z,24.70
2018-07-28T14:40:28.954Z,24.80
2018-07-28T14:42:57.617Z,25.00
2018-07-28T14:45:25.935Z,25.20
2018-07-28T14:47:54.348Z,25.30
2018-07-28T14:50:22.686Z,25.30
2018-07-28T14:52:50.945Z,25.40
2018-07-28T14:55:19.281Z,25.00
2018-07-28T14:57:47.585Z,24.90
2018-07-28T15:00:15.887Z,24.80
2018-07-28T15:02:44.318Z,24.60
2018-07-28T15:05:12.545Z,24.70
2018-07-28T15:07:40.855Z,24.60
2018-07-28T15:10:09.215Z,24.60
2018-07-28T15:12:37.626Z,24.50
2018-07-28T15:15:06.326Z,24.50
2018-07-28T15:17:34.627Z,24.60
2018-07-28T15:20:03.225Z,24.60
2018-07-28T15:22:31.569Z,24.60
2018-07-28T15:24:59.778Z,24.60
2018-07-28T15:27:28.165Z,24.60
2018-07-28T15:29:56.509Z,24.70
2018-07-28T15:32:24.885Z,24.60
2018-07-28T15:34:53.295Z,24.50
2018-07-28T15:37:21.625Z,24.50
2018-07-28T15:39:50.016Z,24.50
2018-07-28T15:42:18.320Z,24.40
2018-07-28T15:44:46.626Z,24.30
2018-07-28T15:47:15.236Z,24.20
2018-07-28T15:49:43.501Z,24.10
2018-07-28T15:52:11.844Z,24.30
2018-07-28T15:54:40.119Z,24.30
2018-07-28T15:59:36.533Z,24.30
2018-07-28T16:02:04.846Z,24.30
2018-07-28T16:04:33.232Z,24.20
2018-07-28T16:09:29.670Z,24.00
2018-07-28T16:11:57.945Z,24.00
2018-07-28T16:14:26.334Z,24.10
2018-07-28T16:16:54.666Z,23.90
2018-07-28T16:19:23.090Z,24.00
2018-07-28T16:21:51.471Z,23.90
2018-07-28T16:24:19.789Z,23.80
2018-07-28T16:26:48.088Z,23.70
2018-07-28T16:29:16.393Z,23.90
2018-07-28T16:31:44.867Z,24.00
2018-07-28T16:34:13.107Z,24.00
2018-07-28T16:36:41.955Z,23.70
2018-07-28T16:41:39.077Z,23.40
2018-07-28T16:44:07.395Z,23.30
2018-07-28T16:46:35.719Z,23.20
2018-07-28T16:49:04.235Z,23.10
2018-07-28T16:51:32.611Z,23.30
2018-07-28T16:56:29.280Z,23.20
2018-07-28T16:58:57.778Z,23.20
2018-07-28T17:01:26.004Z,23.20
2018-07-28T17:03:54.300Z,23.30
2018-07-28T17:06:22.763Z,23.20
2018-07-28T17:08:51.154Z,23.00
2018-07-28T17:11:19.413Z,23.20
2018-07-28T17:13:47.734Z,23.20
2018-07-28T17:18:44.084Z,23.10
2018-07-28T17:23:40.447Z,23.10
2018-07-28T17:26:08.691Z,22.90
2018-07-28T17:28:37.000Z,22.90
2018-07-28T17:31:05.343Z,22.70
2018-07-28T17:33:33.667Z,22.60
2018-07-28T17:36:02.030Z,22.60
2018-07-28T17:38:30.507Z,22.80
2018-07-28T17:40:58.927Z,22.80
2018-07-28T17:43:27.271Z,22.50
2018-07-28T17:45:55.541Z,22.50
2018-07-28T17:48:23.817Z,22.60
2018-07-28T17:50:52.410Z,22.60
2018-07-28T17:53:20.720Z,22.60
2018-07-28T17:55:48.996Z,22.30
2018-07-28T17:58:17.482Z,22.30
2018-07-28T18:00:46.170Z,22.30
2018-07-28T18:03:14.469Z,22.30
2018-07-28T18:05:42.831Z,22.20
2018-07-28T18:10:39.229Z,22.20
2018-07-28T18:13:07.574Z,22.10
2018-07-28T18:15:35.953Z,22.10
2018-07-28T18:18:04.253Z,22.10
2018-07-28T18:20:32.689Z,22.10
2018-07-28T18:23:00.970Z,22.00
2018-07-28T18:27:57.373Z,21.80
2018-07-28T18:30:25.663Z,21.70
2018-07-28T18:32:53.922Z,21.80
2018-07-28T18:35:22.253Z,21.60
2018-07-28T18:37:50.614Z,21.60
2018-07-28T18:40:18.904Z,21.60
2018-07-28T18:42:47.415Z,21.60
2018-07-28T18:45:15.653Z,21.70
2018-07-28T18:47:44.055Z,21.70
2018-07-28T18:50:12.265Z,21.50
2018-07-28T18:52:40.530Z,21.50
2018-07-28T18:55:08.932Z,21.30
2018-07-28T18:57:37.233Z,21.30
2018-07-28T19:00:07.628Z,21.30
2018-07-28T19:02:35.907Z,21.30
2018-07-28T19:05:04.287Z,21.40
2018-07-28T19:07:32.618Z,21.40
2018-07-28T19:10:00.936Z,21.30
2018-07-28T19:12:34.633Z,21.30
2018-07-28T19:15:02.988Z,21.20
2018-07-28T19:17:36.651Z,21.10
2018-07-28T19:20:04.997Z,21.10
2018-07-28T19:22:38.757Z,21.20
2018-07-28T19:25:07.055Z,21.30
2018-07-28T19:27:35.354Z,21.20
2018-07-28T19:30:03.707Z,21.20
2018-07-28T19:32:31.930Z,21.20
2018-07-28T19:35:00.205Z,21.10
2018-07-28T19:39:57.755Z,22.40
2018-07-28T19:42:31.477Z,21.10
2018-07-28T19:44:59.758Z,21.10
2018-07-28T19:47:28.095Z,21.10
2018-07-28T19:49:56.673Z,21.10
2018-07-28T19:52:25.001Z,21.10
2018-07-28T19:54:53.353Z,21.10
2018-07-28T19:57:21.688Z,21.00
2018-07-28T19:59:50.021Z,20.80
2018-07-28T20:02:18.357Z,20.70
2018-07-28T20:04:46.641Z,20.80
2018-07-28T20:07:15.099Z,20.80
2018-07-28T20:09:43.484Z,20.70
2018-07-28T20:12:11.739Z,20.60
2018-07-28T20:14:39.994Z,20.70
2018-07-28T20:17:08.355Z,20.80
2018-07-28T20:19:36.726Z,20.80
2018-07-28T20:22:11.307Z,20.80
2018-07-28T20:24:39.614Z,20.60
2018-07-28T20:27:07.926Z,20.50
2018-07-28T20:29:36.274Z,20.30
2018-07-28T20:32:04.786Z,20.40
2018-07-28T20:34:33.062Z,20.40
2018-07-28T20:37:01.950Z,20.30
2018-07-28T20:39:30.217Z,20.40
2018-07-28T20:41:58.456Z,20.30
2018-07-28T20:44:26.912Z,20.40
2018-07-28T20:46:55.308Z,20.50
2018-07-28T20:49:23.549Z,20.40
2018-07-28T20:51:51.770Z,20.40
2018-07-28T20:54:20.200Z,20.40
2018-07-28T20:56:48.488Z,20.30
2018-07-28T20:59:17.015Z,20.40
2018-07-28T21:01:45.428Z,20.30
2018-07-28T21:04:13.673Z,20.40
2018-07-28T21:06:42.030Z,20.20
2018-07-28T21:09:10.707Z,20.10
2018-07-28T21:11:39.201Z,20.10
2018-07-28T21:14:07.527Z,20.10
2018-07-28T21:16:35.948Z,20.10
2018-07-28T21:19:04.221Z,20.10
2018-07-28T21:21:32.470Z,20.20
2018-07-28T21:24:00.742Z,20.10
2018-07-28T21:26:29.049Z,20.20
2018-07-28T21:28:57.437Z,20.20
2018-07-28T21:31:25.723Z,20.20
2018-07-28T21:33:54.292Z,20.10
2018-07-28T21:36:22.565Z,20.00
2018-07-28T21:38:50.839Z,20.00
2018-07-28T21:41:19.081Z,20.00
2018-07-28T21:43:47.331Z,20.00
2018-07-28T21:46:15.621Z,20.00
2018-07-28T21:48:43.884Z,20.00
2018-07-28T21:51:12.120Z,19.90
2018-07-28T21:53:40.512Z,19.90
2018-07-28T21:56:08.839Z,20.00
2018-07-28T21:58:37.076Z,20.10
2018-07-28T22:01:10.787Z,20.10
2018-07-28T22:03:39.073Z,20.10
2018-07-28T22:06:07.317Z,19.90
2018-07-28T22:08:35.611Z,20.00
2018-07-28T22:11:03.917Z,20.00
2018-07-28T22:13:32.260Z,20.00
2018-07-28T22:16:00.570Z,19.90
2018-07-28T22:18:28.853Z,19.90
2018-07-28T22:20:57.221Z,19.90
2018-07-28T22:23:25.528Z,19.90
2018-07-28T22:25:53.781Z,19.80
2018-07-28T22:28:22.122Z,19.80
2018-07-28T22:30:50.377Z,19.80
2018-07-28T22:33:18.626Z,19.80
2018-07-28T22:35:46.933Z,19.80
2018-07-28T22:38:15.284Z,19.70
2018-07-28T22:40:43.586Z,19.70
2018-07-28T22:43:11.938Z,19.70
2018-07-28T22:45:40.217Z,19.60
2018-07-28T22:48:08.465Z,19.60
2018-07-28T22:50:36.912Z,19.60
2018-07-28T22:53:05.213Z,19.70
2018-07-28T22:55:33.513Z,19.70
2018-07-28T22:58:01.882Z,19.60
2018-07-28T23:00:30.199Z,19.70
2018-07-28T23:02:58.527Z,19.60
2018-07-28T23:05:26.830Z,19.70
2018-07-28T23:07:55.130Z,19.70
2018-07-28T23:10:23.389Z,19.70
2018-07-28T23:12:51.657Z,19.70
2018-07-28T23:15:19.930Z,19.70
2018-07-28T23:17:48.251Z,19.60
2018-07-28T23:20:16.583Z,19.70
2018-07-28T23:22:44.858Z,19.70
2018-07-28T23:25:13.159Z,19.80
2018-07-28T23:27:41.405Z,19.80
2018-07-28T23:30:11.006Z,19.70
2018-07-28T23:32:39.966Z,19.80
2018-07-28T23:35:08.632Z,19.80
2018-07-28T23:37:37.037Z,19.80
2018-07-28T23:40:05.762Z,19.70
2018-07-28T23:42:34.045Z,19.70
2018-07-28T23:45:02.360Z,19.80
2018-07-28T23:47:30.632Z,19.60
2018-07-28T23:49:58.884Z,19.50
2018-07-28T23:52:27.274Z,19.40
2018-07-28T23:54:55.813Z,19.40
2018-07-28T23:57:24.122Z,19.40
2018-07-28T23:59:52.441Z,19.30
